sensor_id;sensor_type;location;lat;lon;timestamp;temperature;humidity
73310;DHT22;61532;43.802;4.330;2022-07-04T00:00:19;24.10;79.30
73310;DHT22;61532;43.802;4.330;2022-07-04T00:02:47;23.90;79.90
73310;DHT22;61532;43.802;4.330;2022-07-04T00:05:14;23.80;80.60
73310;DHT22;61532;43.802;4.330;2022-07-04T00:07:44;23.80;80.70
73310;DHT22;61532;43.802;4.330;2022-07-04T00:10:12;23.80;79.40
73310;DHT22;61532;43.802;4.330;2022-07-04T00:12:39;23.80;80.70
73310;DHT22;61532;43.802;4.330;2022-07-04T00:15:06;23.70;81.00
73310;DHT22;61532;43.802;4.330;2022-07-04T00:17:33;23.70;81.20
73310;DHT22;61532;43.802;4.330;2022-07-04T00:20:00;23.70;80.00
73310;DHT22;61532;43.802;4.330;2022-07-04T00:22:27;23.80;80.80
73310;DHT22;61532;43.802;4.330;2022-07-04T00:24:53;23.70;80.20
73310;DHT22;61532;43.802;4.330;2022-07-04T00:27:19;23.70;81.30
73310;DHT22;61532;43.802;4.330;2022-07-04T00:29:46;23.60;80.40
73310;DHT22;61532;43.802;4.330;2022-07-04T00:32:12;23.80;78.00
73310;DHT22;61532;43.802;4.330;2022-07-04T00:34:38;23.90;78.10
73310;DHT22;61532;43.802;4.330;2022-07-04T00:37:05;23.90;78.20
73310;DHT22;61532;43.802;4.330;2022-07-04T00:39:32;23.90;78.20
73310;DHT22;61532;43.802;4.330;2022-07-04T00:41:58;24.00;78.30
73310;DHT22;61532;43.802;4.330;2022-07-04T00:44:24;23.80;80.30
73310;DHT22;61532;43.802;4.330;2022-07-04T00:46:50;23.70;79.00
73310;DHT22;61532;43.802;4.330;2022-07-04T00:49:17;23.80;79.10
73310;DHT22;61532;43.802;4.330;2022-07-04T00:51:45;23.80;79.40
73310;DHT22;61532;43.802;4.330;2022-07-04T00:54:15;23.80;79.10
73310;DHT22;61532;43.802;4.330;2022-07-04T00:56:43;23.70;80.20
73310;DHT22;61532;43.802;4.330;2022-07-04T00:59:10;23.70;80.00
73310;DHT22;61532;43.802;4.330;2022-07-04T01:01:37;23.70;78.90
73310;DHT22;61532;43.802;4.330;2022-07-04T01:04:05;23.80;79.70
73310;DHT22;61532;43.802;4.330;2022-07-04T01:06:32;23.80;79.10
73310;DHT22;61532;43.802;4.330;2022-07-04T01:09:00;23.80;78.80
73310;DHT22;61532;43.802;4.330;2022-07-04T01:11:26;23.80;78.30
73310;DHT22;61532;43.802;4.330;2022-07-04T01:13:57;23.70;79.30
73310;DHT22;61532;43.802;4.330;2022-07-04T01:16:25;23.80;78.70
73310;DHT22;61532;43.802;4.330;2022-07-04T01:18:52;23.80;78.40
73310;DHT22;61532;43.802;4.330;2022-07-04T01:21:19;23.70;78.70
73310;DHT22;61532;43.802;4.330;2022-07-04T01:23:45;23.80;78.80
73310;DHT22;61532;43.802;4.330;2022-07-04T01:26:12;23.80;78.60
73310;DHT22;61532;43.802;4.330;2022-07-04T01:28:39;23.80;79.30
73310;DHT22;61532;43.802;4.330;2022-07-04T01:31:05;23.70;79.30
73310;DHT22;61532;43.802;4.330;2022-07-04T01:33:32;23.70;79.60
73310;DHT22;61532;43.802;4.330;2022-07-04T01:35:59;23.60;80.10
73310;DHT22;61532;43.802;4.330;2022-07-04T01:38:26;23.50;80.20
73310;DHT22;61532;43.802;4.330;2022-07-04T01:40:52;23.50;80.60
73310;DHT22;61532;43.802;4.330;2022-07-04T01:43:18;23.40;81.50
73310;DHT22;61532;43.802;4.330;2022-07-04T01:45:44;23.30;80.80
73310;DHT22;61532;43.802;4.330;2022-07-04T01:48:12;23.50;78.70
73310;DHT22;61532;43.802;4.330;2022-07-04T01:50:39;23.60;79.30
73310;DHT22;61532;43.802;4.330;2022-07-04T01:53:06;23.50;78.90
73310;DHT22;61532;43.802;4.330;2022-07-04T01:55:32;23.50;78.70
73310;DHT22;61532;43.802;4.330;2022-07-04T01:57:59;23.60;79.10
73310;DHT22;61532;43.802;4.330;2022-07-04T02:00:26;23.50;79.80
73310;DHT22;61532;43.802;4.330;2022-07-04T02:03:11;23.30;80.40
73310;DHT22;61532;43.802;4.330;2022-07-04T02:05:37;23.30;80.50
73310;DHT22;61532;43.802;4.330;2022-07-04T02:08:07;23.40;79.50
73310;DHT22;61532;43.802;4.330;2022-07-04T02:10:37;23.40;79.40
73310;DHT22;61532;43.802;4.330;2022-07-04T02:13:03;23.40;80.00
73310;DHT22;61532;43.802;4.330;2022-07-04T02:15:38;23.40;80.30
73310;DHT22;61532;43.802;4.330;2022-07-04T02:18:08;23.30;80.60
73310;DHT22;61532;43.802;4.330;2022-07-04T02:20:36;23.20;81.10
73310;DHT22;61532;43.802;4.330;2022-07-04T02:23:03;23.10;81.30
73310;DHT22;61532;43.802;4.330;2022-07-04T02:25:29;23.20;80.60
73310;DHT22;61532;43.802;4.330;2022-07-04T02:27:56;23.30;79.80
73310;DHT22;61532;43.802;4.330;2022-07-04T02:30:23;23.30;80.30
73310;DHT22;61532;43.802;4.330;2022-07-04T02:32:49;23.20;79.80
73310;DHT22;61532;43.802;4.330;2022-07-04T02:35:16;23.30;79.10
73310;DHT22;61532;43.802;4.330;2022-07-04T02:37:42;23.30;79.80
73310;DHT22;61532;43.802;4.330;2022-07-04T02:40:09;23.30;79.10
73310;DHT22;61532;43.802;4.330;2022-07-04T02:42:36;23.20;79.30
73310;DHT22;61532;43.802;4.330;2022-07-04T02:45:04;23.10;78.90
73310;DHT22;61532;43.802;4.330;2022-07-04T02:47:30;23.10;78.40
73310;DHT22;61532;43.802;4.330;2022-07-04T02:49:57;23.10;77.70
73310;DHT22;61532;43.802;4.330;2022-07-04T02:52:23;23.10;77.50
73310;DHT22;61532;43.802;4.330;2022-07-04T02:54:50;23.20;77.10
73310;DHT22;61532;43.802;4.330;2022-07-04T02:57:18;23.10;77.30
73310;DHT22;61532;43.802;4.330;2022-07-04T02:59:45;23.20;76.90
73310;DHT22;61532;43.802;4.330;2022-07-04T03:02:11;23.20;76.50
73310;DHT22;61532;43.802;4.330;2022-07-04T03:04:37;23.20;76.10
73310;DHT22;61532;43.802;4.330;2022-07-04T03:07:06;23.10;75.80
73310;DHT22;61532;43.802;4.330;2022-07-04T03:09:33;23.10;75.40
73310;DHT22;61532;43.802;4.330;2022-07-04T03:11:59;23.10;75.00
73310;DHT22;61532;43.802;4.330;2022-07-04T03:14:26;23.10;75.10
73310;DHT22;61532;43.802;4.330;2022-07-04T03:16:52;23.10;75.20
73310;DHT22;61532;43.802;4.330;2022-07-04T03:19:19;23.00;75.00
73310;DHT22;61532;43.802;4.330;2022-07-04T03:21:45;22.90;75.20
73310;DHT22;61532;43.802;4.330;2022-07-04T03:24:11;22.90;75.10
73310;DHT22;61532;43.802;4.330;2022-07-04T03:26:38;22.90;75.00
73310;DHT22;61532;43.802;4.330;2022-07-04T03:29:04;22.90;75.00
73310;DHT22;61532;43.802;4.330;2022-07-04T03:31:30;22.90;74.40
73310;DHT22;61532;43.802;4.330;2022-07-04T03:33:56;22.90;74.90
73310;DHT22;61532;43.802;4.330;2022-07-04T03:36:23;22.80;74.70
73310;DHT22;61532;43.802;4.330;2022-07-04T03:38:49;22.80;74.80
73310;DHT22;61532;43.802;4.330;2022-07-04T03:41:16;22.60;75.10
73310;DHT22;61532;43.802;4.330;2022-07-04T03:43:42;22.70;75.60
73310;DHT22;61532;43.802;4.330;2022-07-04T03:46:08;22.60;75.60
73310;DHT22;61532;43.802;4.330;2022-07-04T03:48:34;22.60;76.20
73310;DHT22;61532;43.802;4.330;2022-07-04T03:51:01;22.60;76.20
73310;DHT22;61532;43.802;4.330;2022-07-04T03:53:28;22.50;76.10
73310;DHT22;61532;43.802;4.330;2022-07-04T03:55:54;22.50;76.20
73310;DHT22;61532;43.802;4.330;2022-07-04T03:58:20;22.50;76.70
73310;DHT22;61532;43.802;4.330;2022-07-04T04:00:47;22.50;76.30
73310;DHT22;61532;43.802;4.330;2022-07-04T04:03:13;22.40;76.60
73310;DHT22;61532;43.802;4.330;2022-07-04T04:05:58;22.40;76.50
73310;DHT22;61532;43.802;4.330;2022-07-04T04:08:24;22.40;75.70
73310;DHT22;61532;43.802;4.330;2022-07-04T04:10:50;22.50;74.80
73310;DHT22;61532;43.802;4.330;2022-07-04T04:13:17;22.60;74.10
73310;DHT22;61532;43.802;4.330;2022-07-04T04:15:43;22.60;73.30
73310;DHT22;61532;43.802;4.330;2022-07-04T04:18:09;22.60;73.40
73310;DHT22;61532;43.802;4.330;2022-07-04T04:20:36;22.60;73.30
73310;DHT22;61532;43.802;4.330;2022-07-04T04:23:02;22.60;73.00
73310;DHT22;61532;43.802;4.330;2022-07-04T04:25:28;22.70;72.40
73310;DHT22;61532;43.802;4.330;2022-07-04T04:27:55;22.70;72.40
73310;DHT22;61532;43.802;4.330;2022-07-04T04:30:21;22.70;72.80
73310;DHT22;61532;43.802;4.330;2022-07-04T04:32:47;22.80;73.00
73310;DHT22;61532;43.802;4.330;2022-07-04T04:35:14;22.80;72.60
73310;DHT22;61532;43.802;4.330;2022-07-04T04:37:40;22.90;72.50
73310;DHT22;61532;43.802;4.330;2022-07-04T04:40:07;22.90;71.90
73310;DHT22;61532;43.802;4.330;2022-07-04T04:42:33;23.00;71.70
73310;DHT22;61532;43.802;4.330;2022-07-04T04:45:02;23.00;72.10
73310;DHT22;61532;43.802;4.330;2022-07-04T04:47:28;23.00;72.30
73310;DHT22;61532;43.802;4.330;2022-07-04T04:49:55;23.00;71.80
73310;DHT22;61532;43.802;4.330;2022-07-04T04:52:21;23.10;71.20
73310;DHT22;61532;43.802;4.330;2022-07-04T04:54:47;23.20;70.70
73310;DHT22;61532;43.802;4.330;2022-07-04T04:57:14;23.30;69.90
73310;DHT22;61532;43.802;4.330;2022-07-04T04:59:40;23.40;69.60
73310;DHT22;61532;43.802;4.330;2022-07-04T05:02:06;23.50;69.20
73310;DHT22;61532;43.802;4.330;2022-07-04T05:04:33;23.60;68.60
73310;DHT22;61532;43.802;4.330;2022-07-04T05:06:59;23.60;68.60
73310;DHT22;61532;43.802;4.330;2022-07-04T05:09:26;23.70;68.60
73310;DHT22;61532;43.802;4.330;2022-07-04T05:11:53;23.60;67.90
73310;DHT22;61532;43.802;4.330;2022-07-04T05:14:19;23.70;67.70
73310;DHT22;61532;43.802;4.330;2022-07-04T05:16:45;23.80;67.60
73310;DHT22;61532;43.802;4.330;2022-07-04T05:19:12;23.90;67.10
73310;DHT22;61532;43.802;4.330;2022-07-04T05:21:38;23.90;66.40
73310;DHT22;61532;43.802;4.330;2022-07-04T05:24:05;23.90;66.70
73310;DHT22;61532;43.802;4.330;2022-07-04T05:26:31;23.90;66.90
73310;DHT22;61532;43.802;4.330;2022-07-04T05:28:58;23.90;67.70
73310;DHT22;61532;43.802;4.330;2022-07-04T05:31:24;23.90;68.30
73310;DHT22;61532;43.802;4.330;2022-07-04T05:33:52;23.90;68.70
73310;DHT22;61532;43.802;4.330;2022-07-04T05:36:18;23.90;68.80
73310;DHT22;61532;43.802;4.330;2022-07-04T05:38:45;23.90;68.60
73310;DHT22;61532;43.802;4.330;2022-07-04T05:41:11;23.70;70.50
73310;DHT22;61532;43.802;4.330;2022-07-04T05:43:37;23.70;70.80
73310;DHT22;61532;43.802;4.330;2022-07-04T05:46:04;23.60;72.30
73310;DHT22;61532;43.802;4.330;2022-07-04T05:48:30;23.60;73.80
73310;DHT22;61532;43.802;4.330;2022-07-04T05:50:57;23.50;73.90
73310;DHT22;61532;43.802;4.330;2022-07-04T05:53:23;23.60;73.30
73310;DHT22;61532;43.802;4.330;2022-07-04T05:55:49;23.70;73.00
73310;DHT22;61532;43.802;4.330;2022-07-04T05:58:15;23.70;73.90
73310;DHT22;61532;43.802;4.330;2022-07-04T06:00:42;23.80;73.70
73310;DHT22;61532;43.802;4.330;2022-07-04T06:03:08;23.90;74.20
73310;DHT22;61532;43.802;4.330;2022-07-04T06:05:35;24.00;73.80
73310;DHT22;61532;43.802;4.330;2022-07-04T06:08:01;24.00;71.70
73310;DHT22;61532;43.802;4.330;2022-07-04T06:10:30;24.10;71.50
73310;DHT22;61532;43.802;4.330;2022-07-04T06:12:56;24.30;69.80
73310;DHT22;61532;43.802;4.330;2022-07-04T06:15:23;24.40;69.80
73310;DHT22;61532;43.802;4.330;2022-07-04T06:17:49;24.50;68.60
73310;DHT22;61532;43.802;4.330;2022-07-04T06:20:15;24.60;68.40
73310;DHT22;61532;43.802;4.330;2022-07-04T06:22:46;24.80;67.90
73310;DHT22;61532;43.802;4.330;2022-07-04T06:25:18;25.00;65.70
73310;DHT22;61532;43.802;4.330;2022-07-04T06:27:46;25.10;65.50
73310;DHT22;61532;43.802;4.330;2022-07-04T06:30:13;25.30;64.80
73310;DHT22;61532;43.802;4.330;2022-07-04T06:32:47;25.50;64.30
73310;DHT22;61532;43.802;4.330;2022-07-04T06:35:18;25.70;64.10
73310;DHT22;61532;43.802;4.330;2022-07-04T06:38:03;25.80;63.00
73310;DHT22;61532;43.802;4.330;2022-07-04T06:40:29;26.00;62.00
73310;DHT22;61532;43.802;4.330;2022-07-04T06:42:55;26.20;62.50
73310;DHT22;61532;43.802;4.330;2022-07-04T06:45:22;26.30;62.80
73310;DHT22;61532;43.802;4.330;2022-07-04T06:47:48;26.60;62.40
73310;DHT22;61532;43.802;4.330;2022-07-04T06:50:14;26.80;62.00
73310;DHT22;61532;43.802;4.330;2022-07-04T06:52:41;27.00;61.50
73310;DHT22;61532;43.802;4.330;2022-07-04T06:55:07;27.20;59.00
73310;DHT22;61532;43.802;4.330;2022-07-04T06:57:34;27.30;60.70
73310;DHT22;61532;43.802;4.330;2022-07-04T07:00:00;27.60;58.40
73310;DHT22;61532;43.802;4.330;2022-07-04T07:02:28;27.80;57.30
73310;DHT22;61532;43.802;4.330;2022-07-04T07:04:55;28.10;56.10
73310;DHT22;61532;43.802;4.330;2022-07-04T07:07:22;28.30;56.50
73310;DHT22;61532;43.802;4.330;2022-07-04T07:09:51;28.60;56.60
73310;DHT22;61532;43.802;4.330;2022-07-04T07:12:17;28.70;53.50
73310;DHT22;61532;43.802;4.330;2022-07-04T07:14:43;28.60;53.50
73310;DHT22;61532;43.802;4.330;2022-07-04T07:17:10;28.70;54.10
73310;DHT22;61532;43.802;4.330;2022-07-04T07:19:36;28.90;53.60
73310;DHT22;61532;43.802;4.330;2022-07-04T07:22:03;28.80;53.20
73310;DHT22;61532;43.802;4.330;2022-07-04T07:24:29;29.00;54.40
73310;DHT22;61532;43.802;4.330;2022-07-04T07:26:58;29.20;53.00
73310;DHT22;61532;43.802;4.330;2022-07-04T07:29:25;29.40;52.50
73310;DHT22;61532;43.802;4.330;2022-07-04T07:31:51;29.50;51.50
73310;DHT22;61532;43.802;4.330;2022-07-04T07:34:17;29.60;51.10
73310;DHT22;61532;43.802;4.330;2022-07-04T07:36:43;29.70;50.20
73310;DHT22;61532;43.802;4.330;2022-07-04T07:39:10;29.80;50.20
73310;DHT22;61532;43.802;4.330;2022-07-04T07:41:36;30.00;50.00
73310;DHT22;61532;43.802;4.330;2022-07-04T07:44:03;30.00;49.70
73310;DHT22;61532;43.802;4.330;2022-07-04T07:46:29;30.10;49.50
73310;DHT22;61532;43.802;4.330;2022-07-04T07:48:55;30.30;49.40
73310;DHT22;61532;43.802;4.330;2022-07-04T07:51:22;30.40;49.10
73310;DHT22;61532;43.802;4.330;2022-07-04T07:53:48;30.60;49.10
73310;DHT22;61532;43.802;4.330;2022-07-04T07:56:14;30.80;48.30
73310;DHT22;61532;43.802;4.330;2022-07-04T07:58:41;31.00;48.90
73310;DHT22;61532;43.802;4.330;2022-07-04T08:01:07;31.20;48.60
73310;DHT22;61532;43.802;4.330;2022-07-04T08:03:33;31.30;48.10
73310;DHT22;61532;43.802;4.330;2022-07-04T08:06:18;31.40;47.40
73310;DHT22;61532;43.802;4.330;2022-07-04T08:08:45;31.60;47.40
73310;DHT22;61532;43.802;4.330;2022-07-04T08:11:12;31.60;47.10
73310;DHT22;61532;43.802;4.330;2022-07-04T08:13:39;31.70;45.90
73310;DHT22;61532;43.802;4.330;2022-07-04T08:16:06;31.90;47.20
73310;DHT22;61532;43.802;4.330;2022-07-04T08:18:33;32.20;46.40
73310;DHT22;61532;43.802;4.330;2022-07-04T08:20:59;32.30;45.80
73310;DHT22;61532;43.802;4.330;2022-07-04T08:23:28;32.60;45.50
73310;DHT22;61532;43.802;4.330;2022-07-04T08:25:55;32.50;45.10
73310;DHT22;61532;43.802;4.330;2022-07-04T08:28:21;32.70;45.50
73310;DHT22;61532;43.802;4.330;2022-07-04T08:30:48;32.80;44.40
73310;DHT22;61532;43.802;4.330;2022-07-04T08:33:14;32.90;44.10
73310;DHT22;61532;43.802;4.330;2022-07-04T08:35:40;33.20;43.70
73310;DHT22;61532;43.802;4.330;2022-07-04T08:38:07;33.40;43.10
73310;DHT22;61532;43.802;4.330;2022-07-04T08:40:33;33.50;43.70
73310;DHT22;61532;43.802;4.330;2022-07-04T08:43:02;33.60;44.00
73310;DHT22;61532;43.802;4.330;2022-07-04T08:45:33;34.00;43.40
73310;DHT22;61532;43.802;4.330;2022-07-04T08:48:02;34.00;43.60
73310;DHT22;61532;43.802;4.330;2022-07-04T08:50:33;34.10;42.10
73310;DHT22;61532;43.802;4.330;2022-07-04T08:53:07;33.90;41.30
73310;DHT22;61532;43.802;4.330;2022-07-04T08:55:39;34.00;42.00
73310;DHT22;61532;43.802;4.330;2022-07-04T08:58:25;34.00;42.10
73310;DHT22;61532;43.802;4.330;2022-07-04T09:01:01;34.20;42.10
73310;DHT22;61532;43.802;4.330;2022-07-04T09:03:28;34.20;41.90
73310;DHT22;61532;43.802;4.330;2022-07-04T09:05:56;34.50;42.20
73310;DHT22;61532;43.802;4.330;2022-07-04T09:08:23;34.50;41.40
73310;DHT22;61532;43.802;4.330;2022-07-04T09:10:51;34.50;41.60
73310;DHT22;61532;43.802;4.330;2022-07-04T09:13:19;34.70;41.80
73310;DHT22;61532;43.802;4.330;2022-07-04T09:15:48;34.80;41.10
73310;DHT22;61532;43.802;4.330;2022-07-04T09:18:27;34.80;41.40
73310;DHT22;61532;43.802;4.330;2022-07-04T09:20:59;34.90;41.50
73310;DHT22;61532;43.802;4.330;2022-07-04T09:23:31;35.00;40.90
73310;DHT22;61532;43.802;4.330;2022-07-04T09:26:13;35.00;40.50
73310;DHT22;61532;43.802;4.330;2022-07-04T09:28:41;35.10;40.10
73310;DHT22;61532;43.802;4.330;2022-07-04T09:31:28;35.30;41.60
73310;DHT22;61532;43.802;4.330;2022-07-04T09:34:00;35.30;39.60
73310;DHT22;61532;43.802;4.330;2022-07-04T09:36:33;35.20;39.80
73310;DHT22;61532;43.802;4.330;2022-07-04T09:39:19;35.10;39.70
73310;DHT22;61532;43.802;4.330;2022-07-04T09:44:28;35.00;40.40
73310;DHT22;61532;43.802;4.330;2022-07-04T09:46:55;35.10;40.10
73310;DHT22;61532;43.802;4.330;2022-07-04T09:49:22;35.10;39.70
73310;DHT22;61532;43.802;4.330;2022-07-04T09:51:51;35.30;39.90
73310;DHT22;61532;43.802;4.330;2022-07-04T09:56:51;35.70;39.60
73310;DHT22;61532;43.802;4.330;2022-07-04T09:59:18;35.70;38.50
73310;DHT22;61532;43.802;4.330;2022-07-04T10:01:45;35.50;38.30
73310;DHT22;61532;43.802;4.330;2022-07-04T10:04:13;35.20;40.20
73310;DHT22;61532;43.802;4.330;2022-07-04T10:06:43;34.80;39.10
73310;DHT22;61532;43.802;4.330;2022-07-04T10:09:16;34.60;39.80
73310;DHT22;61532;43.802;4.330;2022-07-04T10:11:45;34.30;40.50
73310;DHT22;61532;43.802;4.330;2022-07-04T10:14:12;33.90;44.00
73310;DHT22;61532;43.802;4.330;2022-07-04T10:16:40;33.60;45.70
73310;DHT22;61532;43.802;4.330;2022-07-04T10:19:10;33.30;46.50
73310;DHT22;61532;43.802;4.330;2022-07-04T10:21:38;33.00;51.70
73310;DHT22;61532;43.802;4.330;2022-07-04T10:24:05;32.60;52.40
73310;DHT22;61532;43.802;4.330;2022-07-04T10:26:31;32.10;54.30
73310;DHT22;61532;43.802;4.330;2022-07-04T10:28:58;31.50;61.60
73310;DHT22;61532;43.802;4.330;2022-07-04T10:31:26;31.00;62.20
73310;DHT22;61532;43.802;4.330;2022-07-04T10:33:55;30.50;66.40
73310;DHT22;61532;43.802;4.330;2022-07-04T10:36:25;29.80;62.60
73310;DHT22;61532;43.802;4.330;2022-07-04T10:39:00;29.40;66.60
73310;DHT22;61532;43.802;4.330;2022-07-04T10:41:29;29.10;66.30
73310;DHT22;61532;43.802;4.330;2022-07-04T10:43:57;29.00;68.00
73310;DHT22;61532;43.802;4.330;2022-07-04T10:49:03;28.70;72.60
73310;DHT22;61532;43.802;4.330;2022-07-04T10:58:52;27.90;72.70
73310;DHT22;61532;43.802;4.330;2022-07-04T11:01:18;27.70;74.60
73310;DHT22;61532;43.802;4.330;2022-07-04T11:03:52;27.70;77.90
73310;DHT22;61532;43.802;4.330;2022-07-04T11:09:16;27.30;76.30
73310;DHT22;61532;43.802;4.330;2022-07-04T11:12:00;27.00;75.90
73310;DHT22;61532;43.802;4.330;2022-07-04T11:16:56;26.50;80.50
73310;DHT22;61532;43.802;4.330;2022-07-04T11:19:22;26.50;78.40
73310;DHT22;61532;43.802;4.330;2022-07-04T11:21:49;26.80;81.90
73310;DHT22;61532;43.802;4.330;2022-07-04T11:24:15;27.10;77.20
73310;DHT22;61532;43.802;4.330;2022-07-04T11:26:42;27.40;75.40
73310;DHT22;61532;43.802;4.330;2022-07-04T11:29:12;27.80;76.00
73310;DHT22;61532;43.802;4.330;2022-07-04T11:31:43;28.10;79.80
73310;DHT22;61532;43.802;4.330;2022-07-04T11:34:10;28.40;76.50
73310;DHT22;61532;43.802;4.330;2022-07-04T11:36:39;28.80;72.70
73310;DHT22;61532;43.802;4.330;2022-07-04T11:39:10;29.10;67.00
73310;DHT22;61532;43.802;4.330;2022-07-04T11:41:39;29.40;74.90
73310;DHT22;61532;43.802;4.330;2022-07-04T11:44:30;29.40;74.00
73310;DHT22;61532;43.802;4.330;2022-07-04T11:49:54;29.90;69.50
73310;DHT22;61532;43.802;4.330;2022-07-04T11:52:22;30.20;66.50
73310;DHT22;61532;43.802;4.330;2022-07-04T11:54:50;30.30;66.90
73310;DHT22;61532;43.802;4.330;2022-07-04T12:00:00;30.90;65.00
73310;DHT22;61532;43.802;4.330;2022-07-04T12:02:28;31.10;62.90
73310;DHT22;61532;43.802;4.330;2022-07-04T12:04:56;31.20;62.80
73310;DHT22;61532;43.802;4.330;2022-07-04T12:07:25;31.40;65.50
73310;DHT22;61532;43.802;4.330;2022-07-04T12:09:52;31.40;65.80
73310;DHT22;61532;43.802;4.330;2022-07-04T12:12:19;31.60;65.30
73310;DHT22;61532;43.802;4.330;2022-07-04T12:15:06;31.70;65.20
73310;DHT22;61532;43.802;4.330;2022-07-04T12:17:37;32.00;61.70
73310;DHT22;61532;43.802;4.330;2022-07-04T12:20:19;32.10;62.60
73310;DHT22;61532;43.802;4.330;2022-07-04T12:22:59;32.40;61.00
73310;DHT22;61532;43.802;4.330;2022-07-04T12:25:31;32.70;58.80
73310;DHT22;61532;43.802;4.330;2022-07-04T12:33:04;32.70;58.40
73310;DHT22;61532;43.802;4.330;2022-07-04T12:35:49;33.10;57.00
73310;DHT22;61532;43.802;4.330;2022-07-04T12:38:16;33.40;56.70
73310;DHT22;61532;43.802;4.330;2022-07-04T12:41:01;33.60;54.00
73310;DHT22;61532;43.802;4.330;2022-07-04T12:46:31;34.00;50.30
73310;DHT22;61532;43.802;4.330;2022-07-04T12:48:59;34.00;50.00
73310;DHT22;61532;43.802;4.330;2022-07-04T12:51:31;34.30;48.00
73310;DHT22;61532;43.802;4.330;2022-07-04T12:53:59;34.50;49.80
73310;DHT22;61532;43.802;4.330;2022-07-04T12:56:37;34.60;46.40
73310;DHT22;61532;43.802;4.330;2022-07-04T12:59:08;34.70;43.10
73310;DHT22;61532;43.802;4.330;2022-07-04T13:01:35;34.80;43.40
73310;DHT22;61532;43.802;4.330;2022-07-04T13:04:02;34.90;43.00
73310;DHT22;61532;43.802;4.330;2022-07-04T13:06:29;34.90;43.80
73310;DHT22;61532;43.802;4.330;2022-07-04T13:08:56;35.10;43.00
73310;DHT22;61532;43.802;4.330;2022-07-04T13:11:23;35.40;42.10
73310;DHT22;61532;43.802;4.330;2022-07-04T13:14:08;35.70;43.30
73310;DHT22;61532;43.802;4.330;2022-07-04T13:16:35;35.70;39.40
73310;DHT22;61532;43.802;4.330;2022-07-04T13:19:01;35.90;38.40
73310;DHT22;61532;43.802;4.330;2022-07-04T13:21:27;36.00;39.70
73310;DHT22;61532;43.802;4.330;2022-07-04T13:23:54;36.20;37.90
73310;DHT22;61532;43.802;4.330;2022-07-04T13:26:20;36.20;36.30
73310;DHT22;61532;43.802;4.330;2022-07-04T13:28:47;36.10;35.50
73310;DHT22;61532;43.802;4.330;2022-07-04T13:31:14;36.00;35.90
73310;DHT22;61532;43.802;4.330;2022-07-04T13:33:41;36.20;37.50
73310;DHT22;61532;43.802;4.330;2022-07-04T13:36:07;36.30;35.00
73310;DHT22;61532;43.802;4.330;2022-07-04T13:38:33;36.20;35.10
73310;DHT22;61532;43.802;4.330;2022-07-04T13:41:00;36.30;35.10
73310;DHT22;61532;43.802;4.330;2022-07-04T13:43:27;36.50;35.60
73310;DHT22;61532;43.802;4.330;2022-07-04T13:45:57;36.40;35.90
73310;DHT22;61532;43.802;4.330;2022-07-04T13:48:24;36.40;34.30
73310;DHT22;61532;43.802;4.330;2022-07-04T13:50:50;36.60;37.20
73310;DHT22;61532;43.802;4.330;2022-07-04T13:53:17;36.80;35.20
73310;DHT22;61532;43.802;4.330;2022-07-04T13:55:43;36.60;34.90
73310;DHT22;61532;43.802;4.330;2022-07-04T13:58:10;36.70;36.40
73310;DHT22;61532;43.802;4.330;2022-07-04T14:00:38;36.90;35.60
73310;DHT22;61532;43.802;4.330;2022-07-04T14:03:06;36.80;33.40
73310;DHT22;61532;43.802;4.330;2022-07-04T14:08:22;36.80;35.90
73310;DHT22;61532;43.802;4.330;2022-07-04T14:10:52;36.90;34.30
73310;DHT22;61532;43.802;4.330;2022-07-04T14:13:18;36.90;34.00
73310;DHT22;61532;43.802;4.330;2022-07-04T14:15:44;37.20;34.70
73310;DHT22;61532;43.802;4.330;2022-07-04T14:18:10;37.20;33.90
73310;DHT22;61532;43.802;4.330;2022-07-04T14:20:40;37.20;35.70
73310;DHT22;61532;43.802;4.330;2022-07-04T14:23:06;37.20;33.90
73310;DHT22;61532;43.802;4.330;2022-07-04T14:25:33;37.00;34.80
73310;DHT22;61532;43.802;4.330;2022-07-04T14:27:59;37.00;34.60
73310;DHT22;61532;43.802;4.330;2022-07-04T14:30:25;37.10;34.60
73310;DHT22;61532;43.802;4.330;2022-07-04T14:32:51;37.10;33.80
73310;DHT22;61532;43.802;4.330;2022-07-04T14:35:18;36.90;32.30
73310;DHT22;61532;43.802;4.330;2022-07-04T14:37:44;36.80;34.40
73310;DHT22;61532;43.802;4.330;2022-07-04T14:40:11;36.80;33.70
73310;DHT22;61532;43.802;4.330;2022-07-04T14:42:37;37.00;34.30
73310;DHT22;61532;43.802;4.330;2022-07-04T14:45:04;37.10;36.30
73310;DHT22;61532;43.802;4.330;2022-07-04T14:47:30;37.10;33.20
73310;DHT22;61532;43.802;4.330;2022-07-04T14:49:59;37.00;33.20
73310;DHT22;61532;43.802;4.330;2022-07-04T14:52:25;37.10;34.10
73310;DHT22;61532;43.802;4.330;2022-07-04T14:54:51;37.30;34.80
73310;DHT22;61532;43.802;4.330;2022-07-04T14:57:18;37.30;34.30
73310;DHT22;61532;43.802;4.330;2022-07-04T14:59:44;37.30;31.90
73310;DHT22;61532;43.802;4.330;2022-07-04T15:02:11;37.10;34.40
73310;DHT22;61532;43.802;4.330;2022-07-04T15:04:37;37.00;33.00
73310;DHT22;61532;43.802;4.330;2022-07-04T15:07:05;37.10;33.80
73310;DHT22;61532;43.802;4.330;2022-07-04T15:09:31;37.10;33.10
73310;DHT22;61532;43.802;4.330;2022-07-04T15:11:58;37.00;32.40
73310;DHT22;61532;43.802;4.330;2022-07-04T15:14:24;36.90;32.10
73310;DHT22;61532;43.802;4.330;2022-07-04T15:16:50;36.80;32.20
73310;DHT22;61532;43.802;4.330;2022-07-04T15:19:17;36.80;32.50
73310;DHT22;61532;43.802;4.330;2022-07-04T15:21:45;36.70;32.20
73310;DHT22;61532;43.802;4.330;2022-07-04T15:24:29;36.60;32.60
73310;DHT22;61532;43.802;4.330;2022-07-04T15:26:56;36.80;32.50
73310;DHT22;61532;43.802;4.330;2022-07-04T15:29:23;36.70;33.00
73310;DHT22;61532;43.802;4.330;2022-07-04T15:31:51;36.70;32.50
73310;DHT22;61532;43.802;4.330;2022-07-04T15:34:18;36.80;32.70
73310;DHT22;61532;43.802;4.330;2022-07-04T15:36:45;36.90;33.00
73310;DHT22;61532;43.802;4.330;2022-07-04T15:39:13;36.90;32.30
73310;DHT22;61532;43.802;4.330;2022-07-04T15:41:40;36.90;34.90
73310;DHT22;61532;43.802;4.330;2022-07-04T15:44:07;36.70;32.80
73310;DHT22;61532;43.802;4.330;2022-07-04T15:46:34;36.50;34.00
73310;DHT22;61532;43.802;4.330;2022-07-04T15:49:03;36.30;34.10
73310;DHT22;61532;43.802;4.330;2022-07-04T15:51:30;36.00;34.00
73310;DHT22;61532;43.802;4.330;2022-07-04T15:53:56;36.00;34.20
73310;DHT22;61532;43.802;4.330;2022-07-04T15:56:22;36.10;35.50
73310;DHT22;61532;43.802;4.330;2022-07-04T15:58:49;36.00;37.50
73310;DHT22;61532;43.802;4.330;2022-07-04T16:01:15;35.90;40.20
73310;DHT22;61532;43.802;4.330;2022-07-04T16:03:41;35.90;40.80
73310;DHT22;61532;43.802;4.330;2022-07-04T16:06:07;36.00;42.00
73310;DHT22;61532;43.802;4.330;2022-07-04T16:08:34;36.10;41.60
73310;DHT22;61532;43.802;4.330;2022-07-04T16:11:00;36.10;41.00